Terminal Aerodrome Forecast
Issued by NWS

Home | Current Version | Previous Version | Graphics & Text | Print | Product List | Glossary On
Versions: 1 2 3 4 5 6 7 8 9 10 11 12 13 14 15 16 17 18 19
886
FTUS43 KICT 171732
TAFCNU
TAF
KCNU 171732Z 1718/1818 30005KT P6SM OVC012
     FM172000 29005KT P6SM BKN025
     FM172200 29006KT P6SM SCT060
     FM180600 00000KT 6SM BR SCT025=

USA.gov is the U.S. government's official web portal to all federal, state and local government web resources and services.